createdAt,value
2023-05-13T00:00:00.773Z,10.04
2023-05-13T00:01:02.595Z,9.94
2023-05-13T00:02:08.247Z,9.86
2023-05-13T00:03:10.122Z,9.78
2023-05-13T00:04:12.966Z,9.71
2023-05-13T00:05:14.818Z,9.64
2023-05-13T00:06:17.696Z,9.57
2023-05-13T00:07:20.875Z,9.50
2023-05-13T00:08:23.631Z,9.42
2023-05-13T00:09:25.411Z,9.36
2023-05-13T00:10:28.144Z,9.30
2023-05-13T00:11:30.029Z,9.25
2023-05-13T00:12:32.789Z,9.21
2023-05-13T00:13:34.762Z,9.16
2023-05-13T00:14:37.519Z,9.13
2023-05-13T00:15:40.294Z,9.08
2023-05-13T00:16:43.261Z,9.03
2023-05-13T00:17:45.301Z,8.99
2023-05-13T00:18:48.075Z,8.96
2023-05-13T00:19:49.862Z,8.89
2023-05-13T00:20:53.073Z,8.85
2023-05-13T00:21:54.853Z,8.80
2023-05-13T00:22:58.947Z,8.73
2023-05-13T00:24:01.735Z,8.68
2023-05-13T00:25:04.702Z,8.62
2023-05-13T00:26:06.510Z,8.57
2023-05-13T00:27:10.163Z,8.53
2023-05-13T00:28:14.877Z,8.50
2023-05-13T00:29:17.696Z,8.47
2023-05-13T00:30:19.908Z,8.44
2023-05-13T00:31:23.028Z,8.41
2023-05-13T00:32:24.888Z,8.38
2023-05-13T00:33:27.694Z,8.37
2023-05-13T00:34:29.509Z,8.35
2023-05-13T00:35:32.283Z,8.32
2023-05-13T00:36:34.113Z,8.31
2023-05-13T00:37:37.247Z,8.31
2023-05-13T00:38:40.381Z,8.26
2023-05-13T00:39:43.854Z,8.21
2023-05-13T00:40:45.890Z,8.16
2023-05-13T00:41:49.025Z,8.10
2023-05-13T00:42:51.009Z,8.03
2023-05-13T00:43:55.688Z,7.97
2023-05-13T00:44:57.485Z,7.88
2023-05-13T00:46:00.917Z,7.82
2023-05-13T00:47:02.849Z,7.73
2023-05-13T00:48:07.271Z,7.64
2023-05-13T00:49:09.109Z,7.56
2023-05-13T00:50:12.493Z,7.50
2023-05-13T00:51:14.250Z,7.42
2023-05-13T00:52:17.165Z,7.37
2023-05-13T00:53:19.035Z,7.30
2023-05-13T00:54:23.240Z,7.22
2023-05-13T00:55:25.199Z,7.14
2023-05-13T00:56:28.047Z,7.07
2023-05-13T00:57:29.972Z,7.01
2023-05-13T00:58:32.832Z,6.96
2023-05-13T00:59:34.632Z,6.90
2023-05-13T01:00:41.374Z,6.85
2023-05-13T01:01:47.946Z,6.81
2023-05-13T01:02:54.639Z,6.75
2023-05-13T01:04:04.582Z,6.70
2023-05-13T01:05:13.371Z,6.64
2023-05-13T01:06:18.782Z,6.57
2023-05-13T01:07:28.205Z,6.50
2023-05-13T01:08:44.485Z,6.43
2023-05-13T01:10:02.417Z,6.38
2023-05-13T01:11:08.248Z,6.35
2023-05-13T01:12:14.259Z,6.31
2023-05-13T01:13:20.510Z,6.28
2023-05-13T01:14:26.804Z,6.25
2023-05-13T01:15:29.231Z,6.20
2023-05-13T01:16:36.972Z,6.14
2023-05-13T01:17:44.196Z,6.04
2023-05-13T01:18:50.911Z,5.96
2023-05-13T01:19:54.716Z,5.91
2023-05-13T01:20:57.854Z,5.87
2023-05-13T01:22:01.222Z,5.82
2023-05-13T01:23:06.201Z,5.78
2023-05-13T01:24:08.441Z,5.74
2023-05-13T01:25:11.460Z,5.70
2023-05-13T01:26:13.403Z,5.67
2023-05-13T01:27:16.186Z,5.62
2023-05-13T01:28:18.025Z,5.59
2023-05-13T01:29:24.964Z,5.57
2023-05-13T01:30:27.108Z,5.53
2023-05-13T01:31:30.484Z,5.51
2023-05-13T01:32:32.360Z,5.48
2023-05-13T01:33:39.379Z,5.45
2023-05-13T01:34:41.599Z,5.40
2023-05-13T01:35:44.796Z,5.37
2023-05-13T01:36:47.663Z,5.35
2023-05-13T01:37:54.324Z,5.32
2023-05-13T01:38:56.431Z,5.30
2023-05-13T01:39:59.242Z,5.30
2023-05-13T01:41:01.263Z,5.27
2023-05-13T01:42:06.549Z,5.26
2023-05-13T01:43:08.615Z,5.24
2023-05-13T01:44:12.276Z,5.24
2023-05-13T01:45:16.151Z,5.24
2023-05-13T01:46:19.630Z,5.24
2023-05-13T01:47:22.445Z,5.27
2023-05-13T01:48:26.165Z,5.28
2023-05-13T01:49:28.132Z,5.28
2023-05-13T01:50:31.018Z,5.29
2023-05-13T01:51:33.247Z,5.30
2023-05-13T01:52:36.088Z,5.33
2023-05-13T01:53:39.200Z,5.35
2023-05-13T01:54:41.977Z,5.40
2023-05-13T01:55:47.680Z,5.43
2023-05-13T01:56:50.525Z,5.47
2023-05-13T01:57:52.874Z,5.55
2023-05-13T01:58:55.838Z,5.64
2023-05-13T01:59:57.650Z,5.73
2023-05-13T02:01:01.547Z,5.81
2023-05-13T02:02:04.228Z,5.91
2023-05-13T02:03:07.280Z,6.00
2023-05-13T02:04:09.139Z,6.06
2023-05-13T02:05:11.930Z,6.13
2023-05-13T02:06:13.762Z,6.18
2023-05-13T02:07:16.695Z,6.21
2023-05-13T02:08:21.732Z,6.26
2023-05-13T02:09:25.826Z,6.32
2023-05-13T02:10:27.673Z,6.39
2023-05-13T02:11:30.424Z,6.45
2023-05-13T02:12:32.949Z,6.48
2023-05-13T02:13:35.819Z,6.53
2023-05-13T02:14:38.593Z,6.57
2023-05-13T02:15:41.604Z,6.63
2023-05-13T02:16:44.357Z,6.67
2023-05-13T02:17:47.345Z,6.71
2023-05-13T02:18:49.221Z,6.74
2023-05-13T02:19:52.225Z,6.79
2023-05-13T02:20:54.391Z,6.82
2023-05-13T02:21:57.324Z,6.82
2023-05-13T02:23:01.067Z,6.83
2023-05-13T02:24:04.461Z,6.86
2023-05-13T02:25:08.750Z,6.88
2023-05-13T02:26:12.870Z,6.90
2023-05-13T02:27:16.515Z,6.91
2023-05-13T02:28:19.265Z,6.94
2023-05-13T02:29:21.270Z,6.93
2023-05-13T02:30:26.967Z,6.94
2023-05-13T02:31:28.838Z,6.96
2023-05-13T02:32:31.813Z,6.97
2023-05-13T02:33:33.609Z,6.97
2023-05-13T02:34:36.429Z,6.99
2023-05-13T02:35:38.307Z,6.98
2023-05-13T02:36:41.325Z,6.96
2023-05-13T02:37:43.700Z,6.94
2023-05-13T02:38:47.227Z,6.91
2023-05-13T02:39:51.007Z,6.89
2023-05-13T02:40:56.000Z,6.88
2023-05-13T02:41:59.806Z,6.86
2023-05-13T02:43:07.194Z,6.82
2023-05-13T02:44:21.208Z,6.79
2023-05-13T02:45:24.115Z,6.77
2023-05-13T02:46:28.634Z,6.75
2023-05-13T02:47:32.093Z,6.73
2023-05-13T02:48:39.464Z,6.74
2023-05-13T02:49:41.199Z,6.74
2023-05-13T02:50:44.106Z,6.74
2023-05-13T02:51:46.410Z,6.76
2023-05-13T02:52:49.222Z,6.74
2023-05-13T02:53:51.682Z,6.74
2023-05-13T02:54:54.631Z,6.74
2023-05-13T02:55:59.348Z,6.75
2023-05-13T02:57:02.617Z,6.74
2023-05-13T02:58:04.617Z,6.75
2023-05-13T02:59:07.716Z,6.78
2023-05-13T03:00:11.121Z,6.81
2023-05-13T03:01:14.073Z,6.86
2023-05-13T03:02:15.934Z,6.91
2023-05-13T03:03:18.818Z,6.96
2023-05-13T03:04:20.745Z,7.03
2023-05-13T03:05:23.585Z,7.09
2023-05-13T03:06:25.396Z,7.15
2023-05-13T03:07:28.226Z,7.21
2023-05-13T03:08:30.035Z,7.26
2023-05-13T03:09:34.945Z,7.34
2023-05-13T03:10:36.734Z,7.40
2023-05-13T03:11:40.912Z,7.45
2023-05-13T03:12:43.306Z,7.50
2023-05-13T03:13:46.412Z,7.55
2023-05-13T03:14:49.302Z,7.59
2023-05-13T03:15:52.485Z,7.64
2023-05-13T03:16:54.328Z,7.68
2023-05-13T03:17:57.845Z,7.73
2023-05-13T03:18:59.836Z,7.77
2023-05-13T03:20:03.071Z,7.81
2023-05-13T03:21:06.681Z,7.85
2023-05-13T03:22:09.771Z,7.89
2023-05-13T03:23:11.594Z,7.94
2023-05-13T03:24:14.355Z,7.97
2023-05-13T03:25:16.265Z,8.00
2023-05-13T03:26:24.306Z,8.04
2023-05-13T03:27:27.446Z,8.09
2023-05-13T03:28:30.170Z,8.11
2023-05-13T03:29:31.990Z,8.13
2023-05-13T03:30:34.788Z,8.16
2023-05-13T03:31:48.513Z,8.17
2023-05-13T03:32:51.429Z,8.18
2023-05-13T03:33:53.233Z,8.21
2023-05-13T03:34:56.281Z,8.24
2023-05-13T03:35:58.142Z,8.26
2023-05-13T03:37:05.521Z,8.29
2023-05-13T03:38:07.353Z,8.33
2023-05-13T03:39:13.528Z,8.36
2023-05-13T03:40:15.460Z,8.40
2023-05-13T03:41:18.552Z,8.43
2023-05-13T03:42:23.221Z,8.46
2023-05-13T03:43:27.397Z,8.49
2023-05-13T03:44:35.969Z,8.52
2023-05-13T03:45:38.938Z,8.56
2023-05-13T03:46:44.512Z,8.59
2023-05-13T03:47:47.321Z,8.64
2023-05-13T03:48:51.712Z,8.70
2023-05-13T03:49:54.508Z,8.71
2023-05-13T03:50:56.262Z,8.72
2023-05-13T03:51:59.799Z,8.74
2023-05-13T03:53:02.045Z,8.75
2023-05-13T03:54:06.959Z,8.77
2023-05-13T03:55:09.602Z,8.81
2023-05-13T03:56:12.340Z,8.84
2023-05-13T03:57:15.186Z,8.86
2023-05-13T03:58:22.618Z,8.89
2023-05-13T03:59:25.795Z,8.92
2023-05-13T04:00:28.500Z,8.97
2023-05-13T04:01:30.348Z,9.02
2023-05-13T04:02:33.195Z,9.04
2023-05-13T04:03:35.278Z,9.07
2023-05-13T04:04:38.639Z,9.12
2023-05-13T04:05:40.433Z,9.13
2023-05-13T04:06:43.147Z,9.15
2023-05-13T04:07:44.955Z,9.17
2023-05-13T04:08:49.256Z,9.21
2023-05-13T04:09:51.351Z,9.26
2023-05-13T04:10:54.394Z,9.32
2023-05-13T04:11:56.470Z,9.37
2023-05-13T04:12:59.228Z,9.43
2023-05-13T04:14:01.301Z,9.49
2023-05-13T04:15:06.435Z,9.55
2023-05-13T04:16:08.222Z,9.61
2023-05-13T04:17:11.124Z,9.67
2023-05-13T04:18:12.998Z,9.72
2023-05-13T04:19:15.750Z,9.74
2023-05-13T04:20:17.878Z,9.76
2023-05-13T04:21:20.674Z,9.78
2023-05-13T04:22:24.619Z,9.79
2023-05-13T04:23:28.928Z,9.80
2023-05-13T04:24:31.866Z,9.81
2023-05-13T04:25:36.249Z,9.84
2023-05-13T04:26:38.134Z,9.88
2023-05-13T04:27:40.872Z,9.91
2023-05-13T04:28:48.671Z,9.92
2023-05-13T04:29:52.054Z,9.95
2023-05-13T04:30:55.571Z,9.96
2023-05-13T04:31:58.630Z,9.96
2023-05-13T04:33:00.633Z,9.94
2023-05-13T04:34:03.415Z,9.97
2023-05-13T04:35:06.683Z,10.00
2023-05-13T04:36:13.576Z,10.03
2023-05-13T04:37:17.011Z,10.05
2023-05-13T04:38:19.886Z,10.07
2023-05-13T04:39:21.768Z,10.11
2023-05-13T04:40:24.630Z,10.15
2023-05-13T04:41:27.906Z,10.21
2023-05-13T04:42:30.726Z,10.29
2023-05-13T04:43:32.559Z,10.37
2023-05-13T04:44:36.884Z,10.46
2023-05-13T04:45:39.312Z,10.56
2023-05-13T04:46:46.012Z,10.65
2023-05-13T04:47:48.047Z,10.73
2023-05-13T04:48:51.842Z,10.84
2023-05-13T04:49:54.294Z,10.97
2023-05-13T04:50:58.271Z,11.09
2023-05-13T04:52:01.286Z,11.21
2023-05-13T04:53:04.502Z,11.34
2023-05-13T04:54:06.343Z,11.46
2023-05-13T04:55:10.505Z,11.57
2023-05-13T04:56:12.562Z,11.66
2023-05-13T04:57:15.307Z,11.72
2023-05-13T04:58:17.177Z,11.81
2023-05-13T04:59:19.926Z,11.91
2023-05-13T05:00:21.882Z,11.99
2023-05-13T05:01:26.935Z,12.10
2023-05-13T05:02:30.360Z,12.18
2023-05-13T05:03:33.379Z,12.25
2023-05-13T05:04:35.339Z,12.28
2023-05-13T05:05:40.951Z,12.33
2023-05-13T05:06:45.554Z,12.35
2023-05-13T05:07:49.150Z,12.38
2023-05-13T05:08:51.365Z,12.45
2023-05-13T05:09:54.103Z,12.49
2023-05-13T05:10:56.080Z,12.53
2023-05-13T05:11:58.929Z,12.54
2023-05-13T05:13:02.714Z,12.57
2023-05-13T05:14:05.585Z,12.62
2023-05-13T05:15:15.339Z,12.67
2023-05-13T05:16:19.290Z,12.75
2023-05-13T05:17:21.180Z,12.84
2023-05-13T05:18:25.454Z,12.89
2023-05-13T05:19:27.587Z,12.95
2023-05-13T05:20:32.126Z,13.01
2023-05-13T05:21:35.496Z,13.10
2023-05-13T05:22:38.520Z,13.18
2023-05-13T05:23:40.375Z,13.29
2023-05-13T05:24:43.239Z,13.40
2023-05-13T05:25:45.024Z,13.53
2023-05-13T05:26:47.803Z,13.67
2023-05-13T05:27:49.749Z,13.78
2023-05-13T05:28:53.877Z,13.86
2023-05-13T05:29:55.723Z,13.90
2023-05-13T05:30:58.802Z,13.96
2023-05-13T05:32:02.756Z,14.00
2023-05-13T05:33:06.248Z,14.01
2023-05-13T05:34:09.401Z,14.01
2023-05-13T05:35:13.382Z,14.00
2023-05-13T05:36:15.227Z,14.01
2023-05-13T05:37:17.966Z,14.02
2023-05-13T05:38:19.839Z,14.04
2023-05-13T05:39:23.044Z,14.11
2023-05-13T05:40:25.226Z,14.20
2023-05-13T05:41:27.990Z,14.29
2023-05-13T05:42:29.798Z,14.38
2023-05-13T05:43:32.621Z,14.51
2023-05-13T05:44:36.152Z,14.62
2023-05-13T05:45:38.974Z,14.73
2023-05-13T05:46:43.374Z,14.86
2023-05-13T05:47:45.701Z,15.02
2023-05-13T05:48:48.582Z,15.14
2023-05-13T05:49:51.852Z,15.29
2023-05-13T05:50:55.526Z,15.45
2023-05-13T05:52:02.041Z,15.58
2023-05-13T05:53:06.891Z,15.67
2023-05-13T05:54:11.110Z,15.79
2023-05-13T05:55:14.668Z,15.89
2023-05-13T05:56:16.476Z,16.00
2023-05-13T05:57:20.918Z,16.14
2023-05-13T05:58:23.492Z,16.25
2023-05-13T05:59:27.160Z,16.37
2023-05-13T06:00:29.175Z,16.50
2023-05-13T06:01:33.742Z,16.56
2023-05-13T06:02:36.527Z,16.67
2023-05-13T06:03:38.934Z,16.75
2023-05-13T06:04:42.042Z,16.82
2023-05-13T06:05:45.405Z,16.86
2023-05-13T06:06:48.183Z,16.84
2023-05-13T06:07:50.287Z,16.79
2023-05-13T06:08:53.075Z,16.68
2023-05-13T06:09:54.945Z,16.56
2023-05-13T06:10:58.584Z,16.43
2023-05-13T06:12:01.005Z,16.33
2023-05-13T06:13:04.096Z,16.27
2023-05-13T06:14:06.916Z,16.32
2023-05-13T06:15:10.861Z,16.45
2023-05-13T06:16:13.696Z,16.62
2023-05-13T06:17:15.711Z,16.79
2023-05-13T06:18:19.258Z,16.99
2023-05-13T06:19:21.036Z,17.18
2023-05-13T06:20:24.073Z,17.35
2023-05-13T06:21:27.385Z,17.47
2023-05-13T06:22:30.207Z,17.59
2023-05-13T06:23:32.724Z,17.66
2023-05-13T06:24:35.539Z,17.77
2023-05-13T06:25:37.305Z,17.91
2023-05-13T06:26:42.340Z,18.03
2023-05-13T06:27:44.190Z,18.12
2023-05-13T06:28:47.209Z,18.16
2023-05-13T06:29:49.135Z,18.16
2023-05-13T06:30:52.034Z,18.19
2023-05-13T06:31:53.981Z,18.26
2023-05-13T06:33:01.540Z,18.39
2023-05-13T06:34:05.032Z,18.58
2023-05-13T06:35:09.325Z,18.59
2023-05-13T06:36:11.806Z,18.55
2023-05-13T06:37:16.006Z,18.55
2023-05-13T06:38:18.420Z,18.56
2023-05-13T06:39:22.498Z,18.62
2023-05-13T06:40:24.833Z,18.65
2023-05-13T06:41:27.870Z,18.62
2023-05-13T06:42:40.306Z,18.61
2023-05-13T06:43:50.227Z,18.61
2023-05-13T06:44:56.992Z,18.58
2023-05-13T06:46:03.924Z,18.60
2023-05-13T06:47:06.072Z,18.66
2023-05-13T06:48:09.064Z,18.85
2023-05-13T06:49:12.323Z,18.91
2023-05-13T06:50:15.047Z,19.00
2023-05-13T06:51:17.236Z,19.06
2023-05-13T06:52:21.341Z,19.11
2023-05-13T06:53:23.139Z,19.22
2023-05-13T06:54:27.534Z,19.25
2023-05-13T06:55:29.315Z,19.30
2023-05-13T06:56:32.051Z,19.42
2023-05-13T06:57:41.944Z,19.51
2023-05-13T06:58:45.957Z,19.62
2023-05-13T06:59:47.727Z,19.72
2023-05-13T07:00:50.542Z,19.83
2023-05-13T07:01:52.437Z,19.93
2023-05-13T07:02:55.180Z,19.99
2023-05-13T07:03:57.013Z,20.01
2023-05-13T07:04:59.812Z,20.02
2023-05-13T07:06:01.608Z,20.04
2023-05-13T07:07:04.561Z,20.11
2023-05-13T07:08:08.919Z,20.17
2023-05-13T07:09:10.715Z,20.22
2023-05-13T07:10:13.446Z,20.28
2023-05-13T07:11:15.355Z,20.38
2023-05-13T07:12:18.103Z,20.42
2023-05-13T07:13:21.667Z,20.42
2023-05-13T07:14:25.120Z,20.41
2023-05-13T07:15:27.920Z,20.33
2023-05-13T07:16:29.674Z,20.31
2023-05-13T07:17:32.565Z,20.26
2023-05-13T07:18:34.723Z,20.17
2023-05-13T07:19:37.517Z,20.16
2023-05-13T07:20:39.340Z,20.21
2023-05-13T07:21:42.070Z,20.35
2023-05-13T07:22:43.814Z,20.38
2023-05-13T07:23:47.897Z,20.32
2023-05-13T07:24:49.663Z,20.35
2023-05-13T07:25:53.088Z,20.48
2023-05-13T07:26:54.871Z,20.55
2023-05-13T07:27:57.695Z,20.63
2023-05-13T07:28:59.662Z,20.73
2023-05-13T07:30:02.508Z,20.83
2023-05-13T07:31:05.975Z,20.95
2023-05-13T07:32:08.365Z,21.02
2023-05-13T07:33:11.181Z,21.02
2023-05-13T07:34:12.945Z,20.99
2023-05-13T07:35:17.098Z,20.90
2023-05-13T07:36:18.915Z,20.75
2023-05-13T07:37:21.676Z,20.79
2023-05-13T07:38:23.470Z,20.86
2023-05-13T07:39:27.746Z,20.84
2023-05-13T07:40:30.548Z,20.77
2023-05-13T07:41:32.614Z,20.79
2023-05-13T07:42:35.528Z,20.84
2023-05-13T07:43:39.339Z,21.02
2023-05-13T07:44:42.040Z,21.16
2023-05-13T07:45:43.887Z,21.12
2023-05-13T07:46:46.679Z,21.12
2023-05-13T07:47:49.473Z,21.13
2023-05-13T07:48:51.251Z,21.19
2023-05-13T07:49:54.053Z,21.23
2023-05-13T07:50:57.741Z,21.30
2023-05-13T07:51:59.588Z,21.38
2023-05-13T07:53:03.539Z,21.40
2023-05-13T07:54:05.409Z,21.46
2023-05-13T07:55:19.806Z,21.59
2023-05-13T07:56:21.810Z,21.73
2023-05-13T07:57:24.560Z,21.80
2023-05-13T07:58:27.410Z,21.81
2023-05-13T07:59:29.191Z,21.86
2023-05-13T08:00:32.268Z,21.93
2023-05-13T08:01:34.130Z,22.01
2023-05-13T08:02:39.152Z,22.04
2023-05-13T08:03:42.238Z,22.11
2023-05-13T08:04:44.231Z,22.27
2023-05-13T08:05:47.937Z,22.42
2023-05-13T08:06:49.750Z,22.48
2023-05-13T08:07:52.650Z,22.58
2023-05-13T08:08:54.453Z,22.68
2023-05-13T08:09:57.219Z,22.76
2023-05-13T08:11:00.426Z,22.73
2023-05-13T08:12:03.175Z,22.84
2023-05-13T08:13:04.929Z,22.76
2023-05-13T08:14:07.699Z,22.71
2023-05-13T08:15:11.937Z,22.69
2023-05-13T08:16:14.726Z,22.76
2023-05-13T08:17:18.130Z,22.79
2023-05-13T08:18:20.872Z,22.77
2023-05-13T08:19:22.654Z,22.68
2023-05-13T08:20:29.561Z,22.48
2023-05-13T08:21:32.799Z,22.07
2023-05-13T08:22:34.692Z,21.63
2023-05-13T08:23:45.264Z,21.29
2023-05-13T08:24:48.329Z,21.13
2023-05-13T08:25:50.254Z,21.15
2023-05-13T08:26:54.421Z,21.18
2023-05-13T08:27:57.299Z,21.08
2023-05-13T08:29:00.702Z,21.05
2023-05-13T08:30:02.771Z,20.99
2023-05-13T08:31:05.669Z,20.78
2023-05-13T08:32:07.473Z,20.62
2023-05-13T08:33:12.322Z,20.49
2023-05-13T08:34:14.925Z,20.49
2023-05-13T08:35:17.707Z,20.33
2023-05-13T08:36:19.965Z,20.15
2023-05-13T08:37:22.707Z,20.15
2023-05-13T08:38:24.553Z,20.15
2023-05-13T08:39:27.450Z,20.31
2023-05-13T08:40:29.267Z,20.56
2023-05-13T08:41:32.663Z,20.59
2023-05-13T08:42:39.052Z,20.36
2023-05-13T08:43:43.987Z,20.07
2023-05-13T08:44:46.051Z,20.10
2023-05-13T08:45:50.590Z,20.23
2023-05-13T08:46:57.911Z,20.43
2023-05-13T08:48:02.422Z,20.72
2023-05-13T08:49:04.288Z,21.02
2023-05-13T08:50:08.035Z,21.21
2023-05-13T08:51:10.907Z,21.13
2023-05-13T08:52:12.750Z,20.96
2023-05-13T08:53:18.296Z,20.84
2023-05-13T08:54:23.163Z,20.97
2023-05-13T08:55:27.156Z,21.27
2023-05-13T08:56:29.812Z,21.48
2023-05-13T08:57:32.548Z,21.68
2023-05-13T08:58:36.748Z,21.85
2023-05-13T08:59:38.528Z,22.17
2023-05-13T09:00:41.464Z,22.42
2023-05-13T09:01:44.833Z,22.44
2023-05-13T09:02:47.673Z,22.46
2023-05-13T09:03:53.515Z,22.45
2023-05-13T09:04:57.007Z,22.56
2023-05-13T09:06:00.553Z,22.60
2023-05-13T09:07:03.519Z,22.63
2023-05-13T09:08:08.849Z,22.69
2023-05-13T09:09:11.699Z,22.59
2023-05-13T09:10:13.569Z,22.59
2023-05-13T09:11:16.600Z,22.61
2023-05-13T09:12:42.600Z,22.79
2023-05-13T09:13:46.779Z,22.95
2023-05-13T09:14:48.622Z,23.04
2023-05-13T09:15:51.785Z,23.03
2023-05-13T09:16:56.650Z,22.88
2023-05-13T09:18:00.865Z,22.81
2023-05-13T09:19:05.479Z,22.79
2023-05-13T09:20:08.426Z,22.82
2023-05-13T09:21:32.526Z,22.83
2023-05-13T09:22:34.411Z,22.89
2023-05-13T09:23:37.519Z,22.89
2023-05-13T09:24:39.833Z,22.76
2023-05-13T09:25:42.615Z,22.61
2023-05-13T09:26:45.663Z,22.48
2023-05-13T09:27:49.976Z,22.28
2023-05-13T09:29:24.383Z,22.11
2023-05-13T09:30:26.567Z,21.95
2023-05-13T09:31:33.924Z,21.87
2023-05-13T09:32:36.806Z,21.87
2023-05-13T09:33:39.593Z,21.74
2023-05-13T09:34:47.761Z,21.68
2023-05-13T09:35:52.547Z,21.56
2023-05-13T09:37:04.382Z,21.49
2023-05-13T09:38:14.539Z,21.47
2023-05-13T09:39:17.236Z,21.50
2023-05-13T09:40:20.402Z,21.53
2023-05-13T09:41:22.214Z,21.74
2023-05-13T09:42:24.965Z,22.03
2023-05-13T09:43:28.453Z,22.16
2023-05-13T09:44:32.900Z,22.17
2023-05-13T09:45:35.260Z,22.08
2023-05-13T09:46:38.048Z,21.95
2023-05-13T09:47:40.795Z,21.90
2023-05-13T09:48:44.440Z,21.83
2023-05-13T09:49:54.966Z,22.00
2023-05-13T09:50:58.066Z,22.21
2023-05-13T09:52:00.218Z,22.40
2023-05-13T09:53:11.693Z,22.69
2023-05-13T09:54:13.501Z,22.90
2023-05-13T09:55:16.315Z,23.11
2023-05-13T09:56:21.893Z,23.23
2023-05-13T09:57:24.653Z,23.16
2023-05-13T09:58:28.001Z,23.02
2023-05-13T09:59:34.084Z,22.89
2023-05-13T10:00:38.318Z,22.85
2023-05-13T10:01:42.581Z,22.73
2023-05-13T10:02:45.028Z,22.42
2023-05-13T10:03:48.237Z,22.06
2023-05-13T10:04:50.076Z,21.92
2023-05-13T10:05:53.501Z,22.02
2023-05-13T10:06:55.837Z,22.18
2023-05-13T10:07:59.493Z,22.32
2023-05-13T10:09:03.170Z,22.26
2023-05-13T10:10:09.203Z,22.37
2023-05-13T10:11:13.079Z,22.53
2023-05-13T10:12:16.540Z,22.67
2023-05-13T10:13:20.448Z,22.79
2023-05-13T10:14:22.423Z,22.93
2023-05-13T10:15:26.621Z,23.09
2023-05-13T10:16:29.259Z,23.08
2023-05-13T10:17:33.140Z,23.05
2023-05-13T10:18:35.426Z,22.88
2023-05-13T10:19:38.754Z,22.82
2023-05-13T10:20:40.944Z,22.89
2023-05-13T10:21:43.743Z,23.02
2023-05-13T10:22:45.831Z,23.21
2023-05-13T10:23:48.728Z,23.32
2023-05-13T10:24:50.540Z,23.07
2023-05-13T10:25:54.801Z,22.96
2023-05-13T10:26:57.145Z,22.91
2023-05-13T10:28:00.113Z,22.81
2023-05-13T10:29:03.392Z,22.70
2023-05-13T10:30:09.686Z,22.49
2023-05-13T10:31:13.874Z,22.25
2023-05-13T10:32:15.782Z,22.08
2023-05-13T10:33:19.201Z,22.04
2023-05-13T10:34:22.194Z,21.87
2023-05-13T10:35:27.058Z,21.66
2023-05-13T10:36:39.412Z,21.54
2023-05-13T10:37:52.416Z,21.61
2023-05-13T10:39:10.880Z,21.61
2023-05-13T10:40:39.058Z,21.72
2023-05-13T10:42:07.825Z,22.00
2023-05-13T10:43:14.446Z,22.40
2023-05-13T10:44:17.782Z,22.60
2023-05-13T10:45:20.682Z,22.58
2023-05-13T10:46:23.959Z,22.45
2023-05-13T10:47:27.799Z,22.42
2023-05-13T10:48:38.917Z,22.50
2023-05-13T10:49:41.786Z,22.70
2023-05-13T10:50:55.657Z,22.68
2023-05-13T10:52:04.212Z,22.79
2023-05-13T10:53:11.398Z,22.87
2023-05-13T10:54:19.174Z,22.95
2023-05-13T10:55:22.689Z,22.90
2023-05-13T10:56:25.558Z,22.88
2023-05-13T10:57:33.820Z,22.72
2023-05-13T10:58:38.210Z,22.62
2023-05-13T11:00:14.728Z,22.49
2023-05-13T11:01:19.239Z,22.58
2023-05-13T11:02:23.394Z,22.72
2023-05-13T11:03:30.826Z,22.95
2023-05-13T11:04:32.650Z,23.09
2023-05-13T11:05:36.087Z,23.11
2023-05-13T11:06:40.823Z,23.10
2023-05-13T11:07:55.100Z,23.12
2023-05-13T11:08:57.873Z,23.02
2023-05-13T11:09:59.835Z,22.81
2023-05-13T11:11:03.052Z,22.54
2023-05-13T11:12:06.362Z,22.29
2023-05-13T11:13:29.847Z,22.17
2023-05-13T11:14:32.644Z,21.95
2023-05-13T11:15:44.145Z,21.82
2023-05-13T11:16:48.329Z,21.65
2023-05-13T11:17:53.424Z,21.54
2023-05-13T11:19:03.871Z,21.39
2023-05-13T11:20:06.797Z,21.28
2023-05-13T11:21:10.401Z,21.22
2023-05-13T11:22:15.083Z,21.27
2023-05-13T11:23:18.145Z,21.37
2023-05-13T11:24:22.315Z,21.49
2023-05-13T11:25:27.078Z,21.57
2023-05-13T11:26:44.774Z,21.59
2023-05-13T11:27:47.648Z,21.53
2023-05-13T11:28:58.729Z,21.51
2023-05-13T11:30:00.472Z,21.44
2023-05-13T11:31:16.505Z,21.56
2023-05-13T11:32:48.778Z,21.90
2023-05-13T11:34:10.470Z,22.74
2023-05-13T11:35:13.981Z,23.17
2023-05-13T11:36:15.851Z,23.37
2023-05-13T11:37:19.042Z,23.42
2023-05-13T11:38:23.328Z,23.39
2023-05-13T11:39:27.359Z,23.36
2023-05-13T11:40:30.241Z,23.24
2023-05-13T11:41:33.710Z,23.09
2023-05-13T11:42:37.045Z,22.98
2023-05-13T11:43:40.673Z,22.87
2023-05-13T11:44:46.743Z,22.72
2023-05-13T11:45:49.874Z,22.56
2023-05-13T11:46:54.018Z,22.43
2023-05-13T11:47:57.356Z,22.21
2023-05-13T11:48:59.238Z,22.03
2023-05-13T11:50:03.309Z,21.88
2023-05-13T11:51:05.197Z,21.62
2023-05-13T11:52:10.196Z,21.42
2023-05-13T11:53:12.068Z,21.26
2023-05-13T11:54:27.019Z,21.20
2023-05-13T11:55:30.266Z,21.17
2023-05-13T11:56:33.149Z,21.11
2023-05-13T11:57:35.914Z,21.07
2023-05-13T11:58:38.696Z,21.11
2023-05-13T11:59:47.896Z,21.18
2023-05-13T12:00:52.681Z,21.20
2023-05-13T12:02:01.162Z,21.25
2023-05-13T12:03:11.581Z,21.36
2023-05-13T12:04:13.599Z,21.37
2023-05-13T12:05:17.778Z,21.33
2023-05-13T12:06:19.673Z,21.24
2023-05-13T12:07:23.914Z,21.21
2023-05-13T12:08:26.863Z,21.18
2023-05-13T12:09:28.660Z,21.15
2023-05-13T12:10:31.446Z,21.18
2023-05-13T12:11:33.629Z,21.16
2023-05-13T12:12:38.897Z,21.19
2023-05-13T12:13:41.349Z,21.13
2023-05-13T12:14:46.067Z,21.03
2023-05-13T12:15:50.236Z,20.89
2023-05-13T12:16:52.168Z,20.86
2023-05-13T12:17:55.433Z,20.87
2023-05-13T12:19:00.097Z,20.94
2023-05-13T12:20:07.576Z,20.99
2023-05-13T12:21:17.292Z,20.97
2023-05-13T12:22:22.687Z,20.99
2023-05-13T12:23:24.496Z,21.02
2023-05-13T12:24:28.526Z,21.02
2023-05-13T12:25:37.270Z,21.02
2023-05-13T12:26:40.171Z,21.12
2023-05-13T12:27:42.218Z,21.19
2023-05-13T12:28:45.054Z,21.31
2023-05-13T12:29:47.308Z,21.45
2023-05-13T12:30:52.246Z,21.57
2023-05-13T12:32:07.316Z,21.78
2023-05-13T12:33:15.575Z,21.89
2023-05-13T12:34:32.206Z,21.91
2023-05-13T12:35:34.106Z,21.86
2023-05-13T12:36:39.885Z,21.89
2023-05-13T12:37:41.892Z,21.90
2023-05-13T12:39:00.189Z,21.96
2023-05-13T12:40:12.990Z,22.03
2023-05-13T12:41:15.839Z,22.04
2023-05-13T12:42:19.402Z,21.95
2023-05-13T12:43:33.463Z,21.82
2023-05-13T12:44:36.344Z,21.64
2023-05-13T12:45:42.621Z,21.53
2023-05-13T12:46:51.589Z,21.41
2023-05-13T12:47:53.494Z,21.30
2023-05-13T12:48:57.167Z,21.19
2023-05-13T12:49:59.160Z,21.04
2023-05-13T12:51:02.486Z,20.85
2023-05-13T12:52:06.285Z,20.73
2023-05-13T12:53:09.160Z,20.63
2023-05-13T12:54:11.923Z,20.52
2023-05-13T12:55:14.948Z,20.43
2023-05-13T12:56:17.753Z,20.35
2023-05-13T12:57:20.488Z,20.32
2023-05-13T12:58:23.366Z,20.33
2023-05-13T12:59:37.234Z,20.40
2023-05-13T13:00:40.327Z,20.44
2023-05-13T13:01:43.160Z,20.45
2023-05-13T13:02:46.173Z,20.50
2023-05-13T13:03:48.221Z,20.56
2023-05-13T13:04:51.112Z,20.57
2023-05-13T13:05:53.089Z,20.57
2023-05-13T13:06:56.195Z,20.57
2023-05-13T13:08:01.057Z,20.60
2023-05-13T13:09:03.940Z,20.66
2023-05-13T13:10:06.934Z,20.71
2023-05-13T13:11:09.824Z,20.71
2023-05-13T13:12:11.670Z,20.72
2023-05-13T13:13:14.396Z,20.73
2023-05-13T13:14:16.144Z,20.78
2023-05-13T13:15:19.151Z,20.75
2023-05-13T13:16:22.346Z,20.67
2023-05-13T13:17:24.112Z,20.62
2023-05-13T13:18:27.509Z,20.62
2023-05-13T13:19:29.375Z,20.64
2023-05-13T13:20:32.191Z,20.72
2023-05-13T13:21:34.014Z,20.77
2023-05-13T13:22:37.613Z,20.84
2023-05-13T13:23:42.185Z,20.96
2023-05-13T13:24:44.074Z,21.05
2023-05-13T13:25:46.976Z,21.01
2023-05-13T13:26:49.952Z,20.98
2023-05-13T13:27:52.790Z,20.89
2023-05-13T13:28:54.940Z,20.81
2023-05-13T13:29:57.712Z,20.78
2023-05-13T13:31:00.476Z,20.80
2023-05-13T13:32:02.409Z,20.83
2023-05-13T13:33:05.552Z,20.81
2023-05-13T13:34:09.833Z,20.77
2023-05-13T13:35:24.685Z,20.71
2023-05-13T13:36:26.497Z,20.65
2023-05-13T13:37:29.270Z,20.59
2023-05-13T13:38:31.079Z,20.54
2023-05-13T13:39:35.588Z,20.51
2023-05-13T13:40:38.591Z,20.51
2023-05-13T13:41:40.496Z,20.50
2023-05-13T13:43:47.964Z,20.53
2023-05-13T13:44:50.813Z,20.50
2023-05-13T13:45:53.598Z,20.48
2023-05-13T13:49:39.158Z,20.30
2023-05-13T13:50:41.092Z,20.23
2023-05-13T13:51:43.838Z,20.20
2023-05-13T13:52:45.592Z,20.16
2023-05-13T13:53:50.014Z,20.15
2023-05-13T13:54:53.135Z,20.13
2023-05-13T13:55:55.874Z,20.10
2023-05-13T13:56:57.772Z,20.02